Time;durP1;ratioP1;P1;durP2;ratioP2;P2;SDS_P1;SDS_P2;PMS_P1;PMS_P2;Temp;Humidity;BMP_temperature;BMP_pressure;BME280_temperature;BME280_humidity;BME280_pressure;Samples;Min_cycle;Max_cycle;Signal;HPM_P1;HPM_P2
2022/11/02 00:00:54;;;;;;;11.82;2.03;;;;;;;;;;5071115;28;21110;-67
2022/11/02 00:03:20;;;;;;;11.18;2.53;;;;;;;;;;5075489;28;20177;-67
2022/11/02 00:05:45;;;;;;;10.77;2.00;;;;;;;;;;5075314;28;20188;-67
2022/11/02 00:08:10;;;;;;;8.60;2.17;;;;;;;;;;5068739;28;20183;-67
2022/11/02 00:10:36;;;;;;;8.25;2.42;;;;;;;;;;5071414;28;20336;-67
2022/11/02 00:13:01;;;;;;;17.40;3.28;;;;;;;;;;5070391;28;20180;-67
2022/11/02 00:15:29;;;;;;;10.90;1.90;;;;;;;;;;5073708;28;20220;-67
2022/11/02 00:18:02;;;;;;;12.13;1.83;;;;;;;;;;5074468;28;20271;-67
2022/11/02 00:20:28;;;;;;;15.43;2.33;;;;;;;;;;5070614;28;20177;-67
2022/11/02 00:22:57;;;;;;;13.05;2.10;;;;;;;;;;5078341;28;20222;-67
2022/11/02 00:25:24;;;;;;;10.10;1.80;;;;;;;;;;5070179;28;20333;-67
2022/11/02 00:27:49;;;;;;;15.15;2.15;;;;;;;;;;5079612;28;20449;-67
2022/11/02 00:30:15;;;;;;;12.43;2.33;;;;;;;;;;5077020;28;20177;-67
2022/11/02 00:32:40;;;;;;;15.30;2.33;;;;;;;;;;5071063;28;20427;-67
2022/11/02 00:35:06;;;;;;;13.75;2.50;;;;;;;;;;5078878;28;20470;-67
2022/11/02 00:37:31;;;;;;;10.60;2.03;;;;;;;;;;5076750;28;20206;-67
2022/11/02 00:39:57;;;;;;;12.63;2.35;;;;;;;;;;5073195;28;20203;-68
2022/11/02 00:42:22;;;;;;;11.13;2.38;;;;;;;;;;5073894;28;22223;-67
2022/11/02 00:44:47;;;;;;;15.65;1.98;;;;;;;;;;5070865;28;20684;-68
2022/11/02 00:47:13;;;;;;;10.00;1.67;;;;;;;;;;5068531;28;20211;-67
2022/11/02 00:49:38;;;;;;;9.18;2.10;;;;;;;;;;5069655;28;20181;-68
2022/11/02 00:52:04;;;;;;;13.00;2.10;;;;;;;;;;5076304;28;20185;-68
2022/11/02 00:54:29;;;;;;;10.70;2.28;;;;;;;;;;5069148;28;20653;-67
2022/11/02 00:56:55;;;;;;;9.55;2.10;;;;;;;;;;5071473;28;20187;-67
2022/11/02 00:59:20;;;;;;;14.38;2.03;;;;;;;;;;5078388;28;20587;-67
2022/11/02 01:01:48;;;;;;;12.05;2.88;;;;;;;;;;5083653;28;20184;-67
2022/11/02 01:04:14;;;;;;;10.82;1.67;;;;;;;;;;5076755;28;20177;-67
2022/11/02 01:06:40;;;;;;;10.82;1.92;;;;;;;;;;5083778;28;20191;-67
2022/11/02 01:09:05;;;;;;;13.23;1.92;;;;;;;;;;5084807;28;20666;-67
2022/11/02 01:11:31;;;;;;;11.63;2.40;;;;;;;;;;5074806;28;20262;-67
2022/11/02 01:13:56;;;;;;;12.30;1.80;;;;;;;;;;5071426;28;20196;-67
2022/11/02 01:16:22;;;;;;;10.60;1.92;;;;;;;;;;5076877;28;20177;-69
2022/11/02 01:18:51;;;;;;;12.45;1.85;;;;;;;;;;5070880;28;20300;-67
2022/11/02 01:21:17;;;;;;;12.10;2.00;;;;;;;;;;5081695;28;20196;-67
2022/11/02 01:23:42;;;;;;;11.32;2.00;;;;;;;;;;5078239;28;20185;-68
2022/11/02 01:26:08;;;;;;;10.57;1.85;;;;;;;;;;5073714;28;20190;-69
2022/11/02 01:28:35;;;;;;;11.27;1.92;;;;;;;;;;5071391;28;20208;-67
2022/11/02 01:31:01;;;;;;;8.60;1.60;;;;;;;;;;5082037;28;20228;-68
2022/11/02 01:33:26;;;;;;;8.80;1.75;;;;;;;;;;5067884;28;20705;-66
2022/11/02 01:35:52;;;;;;;16.23;2.17;;;;;;;;;;5073565;28;20264;-67
2022/11/02 01:38:17;;;;;;;8.73;1.88;;;;;;;;;;5073597;28;20209;-67
2022/11/02 01:40:43;;;;;;;12.38;1.35;;;;;;;;;;5081016;28;20286;-67
2022/11/02 01:43:25;;;;;;;7.82;1.60;;;;;;;;;;5074042;28;20168;-68
2022/11/02 01:45:55;;;;;;;10.07;1.52;;;;;;;;;;5073254;28;20639;-67
2022/11/02 01:48:30;;;;;;;10.65;1.48;;;;;;;;;;5069003;28;20235;-67
2022/11/02 01:50:57;;;;;;;7.90;1.45;;;;;;;;;;5089021;28;20205;-66
2022/11/02 01:53:22;;;;;;;9.52;1.60;;;;;;;;;;5076902;28;20212;-66
2022/11/02 01:55:49;;;;;;;10.63;1.52;;;;;;;;;;5072662;28;20674;-67
2022/11/02 01:58:14;;;;;;;6.13;1.50;;;;;;;;;;5072437;28;20196;-67
2022/11/02 02:00:40;;;;;;;7.85;1.30;;;;;;;;;;5080149;28;20184;-67
2022/11/02 02:03:08;;;;;;;7.53;1.33;;;;;;;;;;5074779;28;20180;-67
2022/11/02 02:05:39;;;;;;;7.22;1.33;;;;;;;;;;5073231;28;20192;-67
2022/11/02 02:08:07;;;;;;;6.88;1.35;;;;;;;;;;5075227;28;20184;-68
2022/11/02 02:10:33;;;;;;;8.60;1.15;;;;;;;;;;5075890;28;20271;-66
2022/11/02 02:12:58;;;;;;;6.20;1.13;;;;;;;;;;5076309;28;20551;-67
2022/11/02 02:15:37;;;;;;;8.05;1.35;;;;;;;;;;5073270;28;20272;-66
2022/11/02 02:18:28;;;;;;;6.55;1.60;;;;;;;;;;5070427;28;20192;-66
2022/11/02 02:21:14;;;;;;;6.35;1.50;;;;;;;;;;5069167;28;20203;-66
2022/11/02 02:24:03;;;;;;;16.25;2.15;;;;;;;;;;5077475;28;20264;-66
2022/11/02 02:26:46;;;;;;;6.85;1.23;;;;;;;;;;5080173;28;20187;-67
2022/11/02 02:29:26;;;;;;;19.67;3.15;;;;;;;;;;5072824;28;20644;-71
2022/11/02 02:32:10;;;;;;;9.75;1.88;;;;;;;;;;5077041;28;20220;-72
2022/11/02 02:34:52;;;;;;;7.28;1.23;;;;;;;;;;5083833;28;20624;-70
2022/11/02 02:37:25;;;;;;;6.57;1.00;;;;;;;;;;5078615;28;20275;-70
2022/11/02 02:39:54;;;;;;;10.25;1.77;;;;;;;;;;5083115;28;20196;-70
2022/11/02 02:42:29;;;;;;;5.13;1.08;;;;;;;;;;5087936;28;20194;-68
2022/11/02 02:45:08;;;;;;;5.90;1.23;;;;;;;;;;5083977;28;20172;-69
2022/11/02 02:47:36;;;;;;;8.55;1.27;;;;;;;;;;5082729;28;20699;-68
2022/11/02 02:50:13;;;;;;;9.35;1.15;;;;;;;;;;5100263;28;20418;-69
2022/11/02 02:52:41;;;;;;;6.55;1.05;;;;;;;;;;5080404;28;20651;-69
2022/11/02 02:55:11;;;;;;;6.07;1.00;;;;;;;;;;5090824;28;20180;-68
2022/11/02 02:57:37;;;;;;;7.78;0.95;;;;;;;;;;5089983;28;20583;-68
2022/11/02 03:00:04;;;;;;;5.00;0.65;;;;;;;;;;5086022;28;20196;-67
2022/11/02 03:02:32;;;;;;;7.07;0.75;;;;;;;;;;5078204;28;20210;-68
2022/11/02 03:04:57;;;;;;;4.93;0.52;;;;;;;;;;5070917;28;20176;-67
2022/11/02 03:07:27;;;;;;;3.78;0.93;;;;;;;;;;5075902;28;20195;-66
2022/11/02 03:10:04;;;;;;;2.25;0.40;;;;;;;;;;5074150;28;20640;-67
2022/11/02 03:12:37;;;;;;;3.00;0.50;;;;;;;;;;5090217;28;20220;-66
2022/11/02 03:15:20;;;;;;;3.63;0.50;;;;;;;;;;5078380;28;20180;-67
2022/11/02 03:18:15;;;;;;;3.63;0.52;;;;;;;;;;5085434;28;20275;-67
2022/11/02 03:21:10;;;;;;;5.55;0.82;;;;;;;;;;5075157;28;20727;-67
2022/11/02 03:24:02;;;;;;;4.47;0.57;;;;;;;;;;5082062;28;20184;-66
2022/11/02 03:26:42;;;;;;;3.38;0.50;;;;;;;;;;5078501;28;20912;-66
2022/11/02 03:29:20;;;;;;;5.65;0.50;;;;;;;;;;5080529;28;20204;-67
2022/11/02 03:32:02;;;;;;;3.63;0.50;;;;;;;;;;5085604;28;20699;-66
2022/11/02 03:34:39;;;;;;;6.90;0.63;;;;;;;;;;5079321;28;20189;-67
2022/11/02 03:37:18;;;;;;;5.07;0.95;;;;;;;;;;5070233;28;20592;-66
2022/11/02 03:39:48;;;;;;;3.42;0.68;;;;;;;;;;5070555;28;20204;-67
2022/11/02 03:42:18;;;;;;;4.03;0.60;;;;;;;;;;5070545;28;20181;-66
2022/11/02 03:44:46;;;;;;;6.60;0.93;;;;;;;;;;5074710;28;20245;-66
2022/11/02 03:47:13;;;;;;;4.57;1.13;;;;;;;;;;5072939;28;20235;-66
2022/11/02 03:49:40;;;;;;;4.93;0.60;;;;;;;;;;5071438;28;20173;-67
2022/11/02 03:52:11;;;;;;;4.60;0.95;;;;;;;;;;5070120;28;20207;-66
2022/11/02 03:54:59;;;;;;;3.33;0.85;;;;;;;;;;5069797;28;20173;-66
2022/11/02 03:57:32;;;;;;;6.68;0.75;;;;;;;;;;5071020;28;20705;-66
2022/11/02 04:00:13;;;;;;;6.65;0.90;;;;;;;;;;5073788;28;20617;-66
2022/11/02 04:02:41;;;;;;;3.10;0.73;;;;;;;;;;5073290;28;20195;-66
2022/11/02 04:05:06;;;;;;;6.50;0.95;;;;;;;;;;5070397;28;20199;-66
2022/11/02 04:08:19;;;;;;;6.43;0.80;;;;;;;;;;5073528;28;20575;-66
2022/11/02 04:10:20;;;;;;;6.00;1.40;;;;;;;;;;5071088;28;20177;-66
2022/11/02 04:15:30;;;;;;;14.75;1.77;;;;;;;;;;5072469;28;20528;-66
2022/11/02 04:20:39;;;;;;;5.95;1.13;;;;;;;;;;5071317;28;20199;-66
2022/11/02 04:25:53;;;;;;;8.50;1.55;;;;;;;;;;5068907;28;20211;-66
2022/11/02 04:28:19;;;;;;;4.53;0.70;;;;;;;;;;5081630;28;20280;-66
2022/11/02 04:30:44;;;;;;;10.50;1.30;;;;;;;;;;5083777;28;20344;-67
2022/11/02 04:35:54;;;;;;;6.18;0.93;;;;;;;;;;5072055;28;20296;-67
2022/11/02 04:43:47;;;;;;;12.45;1.45;;;;;;;;;;5068479;28;20183;-67
2022/11/02 04:46:12;;;;;;;14.85;1.63;;;;;;;;;;5071234;28;20626;-66
2022/11/02 04:48:37;;;;;;;8.10;1.48;;;;;;;;;;5070683;28;20177;-66
2022/11/02 04:51:03;;;;;;;9.48;1.25;;;;;;;;;;5076062;28;20188;-67
2022/11/02 04:53:28;;;;;;;7.78;1.17;;;;;;;;;;5072365;28;20199;-66
2022/11/02 04:55:53;;;;;;;13.40;1.88;;;;;;;;;;5072554;28;20274;-67
2022/11/02 04:58:19;;;;;;;13.40;1.80;;;;;;;;;;5078972;28;20239;-67
2022/11/02 05:00:44;;;;;;;7.50;1.30;;;;;;;;;;5067596;28;20499;-67
2022/11/02 05:03:09;;;;;;;13.00;1.92;;;;;;;;;;5069235;28;20287;-67
2022/11/02 05:05:35;;;;;;;9.77;1.70;;;;;;;;;;5067274;28;20271;-67
2022/11/02 05:08:00;;;;;;;14.00;2.30;;;;;;;;;;5078355;28;20256;-67
2022/11/02 05:10:25;;;;;;;6.70;1.40;;;;;;;;;;5076054;28;20639;-67
2022/11/02 05:12:58;;;;;;;10.52;1.48;;;;;;;;;;5073191;28;20656;-67
2022/11/02 05:15:24;;;;;;;10.27;1.80;;;;;;;;;;5071733;28;20279;-67
2022/11/02 05:17:49;;;;;;;14.63;2.28;;;;;;;;;;5068323;28;21744;-67
2022/11/02 05:20:15;;;;;;;14.30;1.92;;;;;;;;;;5078815;28;20208;-66
2022/11/02 05:22:41;;;;;;;15.57;1.80;;;;;;;;;;5073324;28;20269;-67
2022/11/02 05:25:07;;;;;;;6.80;1.75;;;;;;;;;;5071165;28;20185;-67
2022/11/02 05:27:32;;;;;;;13.13;1.90;;;;;;;;;;5073783;28;20187;-67
2022/11/02 05:29:58;;;;;;;9.43;1.50;;;;;;;;;;5069077;28;20184;-67
2022/11/02 05:32:24;;;;;;;20.35;2.80;;;;;;;;;;5074609;28;20219;-67
2022/11/02 05:34:49;;;;;;;10.88;1.60;;;;;;;;;;5089200;28;20271;-67
2022/11/02 05:37:15;;;;;;;11.70;1.80;;;;;;;;;;5073439;28;20181;-67
2022/11/02 05:39:40;;;;;;;12.25;2.25;;;;;;;;;;5071982;28;20208;-67
2022/11/02 05:42:05;;;;;;;10.23;1.40;;;;;;;;;;5072804;28;20204;-68
2022/11/02 05:44:31;;;;;;;14.15;2.53;;;;;;;;;;5071658;28;20177;-67
2022/11/02 05:46:56;;;;;;;16.25;2.05;;;;;;;;;;5080650;28;20215;-67
2022/11/02 05:49:22;;;;;;;14.10;2.20;;;;;;;;;;5079126;28;20188;-67
2022/11/02 05:51:48;;;;;;;12.43;1.95;;;;;;;;;;5086480;28;20212;-67
2022/11/02 05:54:13;;;;;;;14.13;2.00;;;;;;;;;;5070892;28;20584;-67
2022/11/02 05:56:39;;;;;;;17.70;2.08;;;;;;;;;;5083524;28;20572;-66
2022/11/02 05:59:04;;;;;;;11.48;1.58;;;;;;;;;;5072192;28;20562;-67
2022/11/02 06:01:30;;;;;;;12.98;1.80;;;;;;;;;;5068649;28;20216;-68
2022/11/02 06:03:55;;;;;;;8.60;2.60;;;;;;;;;;5077703;28;20239;-67
2022/11/02 06:06:21;;;;;;;10.85;1.92;;;;;;;;;;5066598;28;20436;-67
2022/11/02 06:08:46;;;;;;;12.77;1.85;;;;;;;;;;5077266;28;20472;-67
2022/11/02 06:11:12;;;;;;;12.98;2.25;;;;;;;;;;5074067;28;20212;-67
2022/11/02 06:13:39;;;;;;;13.80;2.05;;;;;;;;;;5076120;28;20188;-67
2022/11/02 06:16:08;;;;;;;10.85;2.05;;;;;;;;;;5075301;28;20206;-67
2022/11/02 06:18:34;;;;;;;13.40;2.08;;;;;;;;;;5075432;28;20201;-67
2022/11/02 06:20:59;;;;;;;11.77;2.05;;;;;;;;;;5083744;28;20190;-66
2022/11/02 06:23:25;;;;;;;14.82;2.05;;;;;;;;;;5087059;28;20172;-67
2022/11/02 06:25:52;;;;;;;11.65;2.20;;;;;;;;;;5078649;28;20216;-66
2022/11/02 06:28:18;;;;;;;15.90;2.63;;;;;;;;;;5076292;28;20466;-66
2022/11/02 06:30:43;;;;;;;11.35;1.77;;;;;;;;;;5064863;28;20239;-67
2022/11/02 06:33:08;;;;;;;17.48;2.40;;;;;;;;;;5068832;28;20748;-66
2022/11/02 06:35:34;;;;;;;12.10;1.83;;;;;;;;;;5068198;28;20193;-67
2022/11/02 06:37:59;;;;;;;9.93;1.58;;;;;;;;;;5081867;28;20615;-66
2022/11/02 06:40:24;;;;;;;17.27;2.30;;;;;;;;;;5081170;28;20639;-67
2022/11/02 06:42:55;;;;;;;10.43;2.30;;;;;;;;;;5076416;28;20176;-66
2022/11/02 06:45:20;;;;;;;13.07;2.05;;;;;;;;;;5078343;28;20168;-67
2022/11/02 06:47:47;;;;;;;9.98;1.95;;;;;;;;;;5068638;28;20223;-66
2022/11/02 06:50:12;;;;;;;7.38;1.98;;;;;;;;;;5074585;28;20177;-67
2022/11/02 06:52:43;;;;;;;13.13;2.38;;;;;;;;;;5069486;28;20180;-66
2022/11/02 06:55:09;;;;;;;12.63;1.83;;;;;;;;;;5084082;28;20267;-67
2022/11/02 06:57:35;;;;;;;17.52;2.40;;;;;;;;;;5073818;28;20204;-67
2022/11/02 07:00:03;;;;;;;12.05;2.53;;;;;;;;;;5077103;28;20530;-66
2022/11/02 07:02:29;;;;;;;9.55;2.22;;;;;;;;;;5071316;28;20180;-66
2022/11/02 07:04:55;;;;;;;10.15;1.70;;;;;;;;;;5067387;28;20553;-66
2022/11/02 07:07:20;;;;;;;12.30;1.88;;;;;;;;;;5070133;28;20180;-66
2022/11/02 07:09:46;;;;;;;9.63;1.52;;;;;;;;;;5070059;28;20175;-66
2022/11/02 07:12:11;;;;;;;11.70;1.75;;;;;;;;;;5071098;28;20598;-67
2022/11/02 07:14:36;;;;;;;9.77;2.25;;;;;;;;;;5069135;28;20250;-66
2022/11/02 07:17:02;;;;;;;11.82;2.28;;;;;;;;;;5070578;28;20192;-66
2022/11/02 07:19:27;;;;;;;19.45;2.45;;;;;;;;;;5073087;28;20209;-66
2022/11/02 07:21:52;;;;;;;12.43;1.92;;;;;;;;;;5070069;28;20181;-66
2022/11/02 07:24:18;;;;;;;10.90;2.67;;;;;;;;;;5077522;28;20180;-66
2022/11/02 07:26:43;;;;;;;7.22;1.42;;;;;;;;;;5072565;28;20196;-66
2022/11/02 07:29:08;;;;;;;12.27;1.98;;;;;;;;;;5071851;28;20544;-66
2022/11/02 07:31:34;;;;;;;13.13;1.65;;;;;;;;;;5071521;28;20282;-66
2022/11/02 07:33:59;;;;;;;11.27;1.80;;;;;;;;;;5072762;28;20659;-66
2022/11/02 07:36:25;;;;;;;12.52;1.77;;;;;;;;;;5070895;28;20264;-66
2022/11/02 07:38:50;;;;;;;13.63;1.80;;;;;;;;;;5070796;28;20254;-66
2022/11/02 07:41:15;;;;;;;13.77;1.70;;;;;;;;;;5073194;28;20193;-67
2022/11/02 07:43:41;;;;;;;10.70;1.98;;;;;;;;;;5077535;28;20249;-66
2022/11/02 07:46:06;;;;;;;9.65;1.38;;;;;;;;;;5075030;28;20181;-66
2022/11/02 07:48:32;;;;;;;9.20;1.70;;;;;;;;;;5070410;28;20177;-66
2022/11/02 07:50:58;;;;;;;10.95;2.70;;;;;;;;;;5071206;28;20227;-66
2022/11/02 07:53:24;;;;;;;9.90;1.48;;;;;;;;;;5077331;28;20691;-66
2022/11/02 07:55:49;;;;;;;11.32;1.70;;;;;;;;;;5072629;28;20263;-66
2022/11/02 07:58:14;;;;;;;7.65;1.35;;;;;;;;;;5078486;28;20215;-66
2022/11/02 08:00:41;;;;;;;15.25;1.80;;;;;;;;;;5070444;28;20374;-66
2022/11/02 08:03:08;;;;;;;10.50;2.00;;;;;;;;;;5077109;28;20179;-66
2022/11/02 08:05:38;;;;;;;14.57;2.15;;;;;;;;;;5071703;28;20180;-66
2022/11/02 08:08:12;;;;;;;9.30;2.03;;;;;;;;;;5071467;28;20185;-66
2022/11/02 08:10:37;;;;;;;9.68;1.70;;;;;;;;;;5069984;28;20268;-66
2022/11/02 08:13:03;;;;;;;9.27;1.70;;;;;;;;;;5074607;28;20330;-66
2022/11/02 08:15:28;;;;;;;7.28;1.10;;;;;;;;;;5072531;28;20173;-66
2022/11/02 08:18:07;;;;;;;9.00;1.63;;;;;;;;;;5071740;28;20184;-66
2022/11/02 08:20:34;;;;;;;11.77;1.60;;;;;;;;;;5080699;28;20191;-66
2022/11/02 08:23:00;;;;;;;9.38;1.83;;;;;;;;;;5072718;28;20600;-66
2022/11/02 08:25:25;;;;;;;11.95;1.90;;;;;;;;;;5069717;28;20180;-66
2022/11/02 08:27:51;;;;;;;9.48;1.48;;;;;;;;;;5073946;28;20188;-66
2022/11/02 08:30:17;;;;;;;12.43;1.75;;;;;;;;;;5070809;28;20181;-66
2022/11/02 08:32:42;;;;;;;11.98;1.90;;;;;;;;;;5074061;28;20204;-65
2022/11/02 08:35:07;;;;;;;13.10;1.80;;;;;;;;;;5074431;28;20615;-66
2022/11/02 08:37:33;;;;;;;13.07;1.83;;;;;;;;;;5070972;28;20180;-65
2022/11/02 08:39:58;;;;;;;10.07;1.65;;;;;;;;;;5076744;28;20230;-66
2022/11/02 08:42:25;;;;;;;7.20;1.38;;;;;;;;;;5070064;28;20219;-65
2022/11/02 08:44:50;;;;;;;12.50;1.85;;;;;;;;;;5070807;28;20464;-66
2022/11/02 08:47:17;;;;;;;8.02;1.77;;;;;;;;;;5071292;28;20185;-66
2022/11/02 08:49:42;;;;;;;11.02;1.48;;;;;;;;;;5074130;28;20177;-65
2022/11/02 08:52:08;;;;;;;9.05;2.05;;;;;;;;;;5071521;28;20598;-65
2022/11/02 08:54:33;;;;;;;9.73;1.83;;;;;;;;;;5070120;28;20260;-66
2022/11/02 08:56:58;;;;;;;12.18;1.70;;;;;;;;;;5069675;28;20272;-66
2022/11/02 08:59:24;;;;;;;6.25;1.30;;;;;;;;;;5087877;28;20225;-66
2022/11/02 09:01:49;;;;;;;12.05;1.65;;;;;;;;;;5082414;28;20184;-66
2022/11/02 09:04:14;;;;;;;11.50;1.65;;;;;;;;;;5077296;28;20177;-66
2022/11/02 09:06:40;;;;;;;9.95;1.40;;;;;;;;;;5077106;28;20222;-65
2022/11/02 09:09:05;;;;;;;14.38;2.05;;;;;;;;;;5069584;28;20242;-66
2022/11/02 09:11:30;;;;;;;8.82;1.48;;;;;;;;;;5069941;28;20191;-65
2022/11/02 09:13:56;;;;;;;11.60;1.70;;;;;;;;;;5074247;28;20183;-67
2022/11/02 09:16:21;;;;;;;8.70;1.20;;;;;;;;;;5068110;28;20219;-65
2022/11/02 09:18:46;;;;;;;9.63;1.38;;;;;;;;;;5072628;28;20714;-65
2022/11/02 09:21:12;;;;;;;10.80;1.50;;;;;;;;;;5067789;28;20671;-65
2022/11/02 09:23:37;;;;;;;8.70;1.33;;;;;;;;;;5076536;28;20176;-65
2022/11/02 09:26:02;;;;;;;10.35;1.83;;;;;;;;;;5071562;28;20233;-65
2022/11/02 09:28:28;;;;;;;10.52;2.38;;;;;;;;;;5072880;28;20271;-65
2022/11/02 09:30:53;;;;;;;12.75;1.90;;;;;;;;;;5071637;28;20691;-65
2022/11/02 09:33:19;;;;;;;11.77;1.45;;;;;;;;;;5081632;28;20701;-66
2022/11/02 09:35:46;;;;;;;9.52;1.60;;;;;;;;;;5077458;28;20187;-66
2022/11/02 09:38:12;;;;;;;14.30;2.03;;;;;;;;;;5075008;28;20609;-65
2022/11/02 09:40:43;;;;;;;10.25;1.35;;;;;;;;;;5067663;28;20218;-68
2022/11/02 09:43:22;;;;;;;8.25;1.60;;;;;;;;;;5076542;28;20218;-66
2022/11/02 09:45:52;;;;;;;6.60;1.90;;;;;;;;;;5067555;28;20584;-65
2022/11/02 09:48:24;;;;;;;14.98;1.45;;;;;;;;;;5077541;28;20172;-65
2022/11/02 09:51:12;;;;;;;9.52;1.52;;;;;;;;;;5083755;28;20206;-65
2022/11/02 09:53:54;;;;;;;14.68;1.63;;;;;;;;;;5088315;28;20325;-65
2022/11/02 09:56:20;;;;;;;11.85;1.80;;;;;;;;;;5082239;28;20193;-65
2022/11/02 09:58:50;;;;;;;9.32;1.50;;;;;;;;;;5077155;28;20196;-65
2022/11/02 10:01:29;;;;;;;10.43;1.63;;;;;;;;;;5080244;28;20581;-66
2022/11/02 10:04:13;;;;;;;7.40;1.20;;;;;;;;;;5084029;28;20202;-67
2022/11/02 10:06:43;;;;;;;8.20;1.40;;;;;;;;;;5072247;28;20660;-66
2022/11/02 10:09:32;;;;;;;6.13;1.33;;;;;;;;;;5078605;28;20585;-66
2022/11/02 10:12:12;;;;;;;8.48;1.40;;;;;;;;;;5079201;28;20194;-66
2022/11/02 10:14:46;;;;;;;6.68;1.25;;;;;;;;;;5083589;28;20203;-65
2022/11/02 10:17:17;;;;;;;11.48;1.52;;;;;;;;;;5074310;28;20176;-66
2022/11/02 10:19:49;;;;;;;11.23;1.20;;;;;;;;;;5080388;28;20212;-66
2022/11/02 10:22:15;;;;;;;7.93;1.33;;;;;;;;;;5067686;28;20329;-66
2022/11/02 10:24:43;;;;;;;9.40;1.48;;;;;;;;;;5080158;28;20211;-66
2022/11/02 10:27:17;;;;;;;10.70;1.73;;;;;;;;;;5085877;28;20192;-66
2022/11/02 10:30:01;;;;;;;10.38;1.52;;;;;;;;;;5071511;28;20650;-65
2022/11/02 10:32:29;;;;;;;14.18;1.98;;;;;;;;;;5069774;28;20234;-65
2022/11/02 10:34:54;;;;;;;7.43;2.10;;;;;;;;;;5080404;28;20192;-65
2022/11/02 10:37:28;;;;;;;12.18;1.80;;;;;;;;;;5086979;28;20279;-65
2022/11/02 10:40:12;;;;;;;9.35;1.55;;;;;;;;;;5087140;28;20200;-65
2022/11/02 10:42:56;;;;;;;9.23;1.52;;;;;;;;;;5089185;28;20202;-65
2022/11/02 10:45:54;;;;;;;8.63;2.00;;;;;;;;;;5076608;28;20195;-66
2022/11/02 10:48:38;;;;;;;17.15;1.65;;;;;;;;;;5081493;28;20244;-65
2022/11/02 10:51:08;;;;;;;8.20;1.50;;;;;;;;;;5079466;28;20181;-66
2022/11/02 10:53:39;;;;;;;10.40;1.30;;;;;;;;;;5073334;28;20267;-65
2022/11/02 10:56:22;;;;;;;13.32;1.40;;;;;;;;;;5076888;28;20238;-66
2022/11/02 10:59:02;;;;;;;14.23;1.60;;;;;;;;;;5084365;28;20634;-66
2022/11/02 11:01:29;;;;;;;7.45;1.60;;;;;;;;;;5085514;28;20216;-65
2022/11/02 11:04:25;;;;;;;13.65;2.75;;;;;;;;;;5081596;28;20579;-65
2022/11/02 11:06:52;;;;;;;7.10;1.65;;;;;;;;;;5074316;28;20196;-66
2022/11/02 11:09:23;;;;;;;9.05;1.70;;;;;;;;;;5078311;28;20176;-65
2022/11/02 11:12:11;;;;;;;10.43;1.70;;;;;;;;;;5072511;28;20271;-67
2022/11/02 11:15:06;;;;;;;7.22;1.27;;;;;;;;;;5087786;28;20236;-66
2022/11/02 11:17:34;;;;;;;9.65;1.65;;;;;;;;;;5072134;28;20211;-65
2022/11/02 11:20:02;;;;;;;9.73;1.80;;;;;;;;;;5078480;28;20212;-65
2022/11/02 11:22:33;;;;;;;9.95;1.70;;;;;;;;;;5074434;28;20200;-65
2022/11/02 11:25:26;;;;;;;10.68;1.42;;;;;;;;;;5079789;28;20885;-65
2022/11/02 11:27:56;;;;;;;13.63;1.77;;;;;;;;;;5070756;28;20200;-65
2022/11/02 11:30:31;;;;;;;9.95;1.70;;;;;;;;;;5071595;28;20181;-66
2022/11/02 11:32:59;;;;;;;9.55;1.75;;;;;;;;;;5082111;28;20200;-66
2022/11/02 11:35:30;;;;;;;7.03;2.08;;;;;;;;;;5081670;28;20263;-66
2022/11/02 11:37:59;;;;;;;11.50;1.50;;;;;;;;;;5079845;28;20512;-65
2022/11/02 11:40:28;;;;;;;7.80;2.03;;;;;;;;;;5081927;28;20203;-66
2022/11/02 11:42:56;;;;;;;10.90;1.35;;;;;;;;;;5084269;28;20597;-65
2022/11/02 11:45:25;;;;;;;11.25;1.60;;;;;;;;;;5081553;28;20485;-65
2022/11/02 11:48:18;;;;;;;6.43;1.33;;;;;;;;;;5078405;28;20180;-65
2022/11/02 11:50:48;;;;;;;9.05;1.63;;;;;;;;;;5076024;28;20234;-65
2022/11/02 11:53:24;;;;;;;10.32;1.58;;;;;;;;;;5083363;28;20550;-65
2022/11/02 11:55:58;;;;;;;9.43;1.20;;;;;;;;;;5084691;28;20186;-66
2022/11/02 11:58:33;;;;;;;10.43;1.10;;;;;;;;;;5080041;28;20176;-65
2022/11/02 12:01:11;;;;;;;12.75;1.65;;;;;;;;;;5082561;28;20188;-65
2022/11/02 12:03:56;;;;;;;7.32;1.20;;;;;;;;;;5078199;28;20219;-65
2022/11/02 12:06:37;;;;;;;5.88;0.95;;;;;;;;;;5079897;28;20216;-65
2022/11/02 12:09:40;;;;;;;12.77;1.88;;;;;;;;;;5077489;28;20663;-65
2022/11/02 12:12:11;;;;;;;7.85;1.30;;;;;;;;;;5046600;28;20214;-65
2022/11/02 12:14:49;;;;;;;6.35;1.20;;;;;;;;;;5078302;28;20262;-65
2022/11/02 12:17:34;;;;;;;11.38;1.50;;;;;;;;;;5079686;28;20646;-66
2022/11/02 12:20:40;;;;;;;7.88;1.63;;;;;;;;;;5080465;28;20207;-65
2022/11/02 12:23:30;;;;;;;9.15;1.40;;;;;;;;;;5069063;28;20184;-65
2022/11/02 12:26:40;;;;;;;8.50;1.50;;;;;;;;;;5084148;28;20255;-66
2022/11/02 12:29:43;;;;;;;10.45;1.60;;;;;;;;;;5003753;28;20350;-66
2022/11/02 12:32:35;;;;;;;5.00;1.10;;;;;;;;;;4997797;28;20270;-66
2022/11/02 12:35:38;;;;;;;10.23;1.50;;;;;;;;;;5073743;28;20192;-65
2022/11/02 12:38:38;;;;;;;8.82;1.30;;;;;;;;;;5077469;28;20184;-66
2022/11/02 12:41:09;;;;;;;6.70;1.42;;;;;;;;;;5079601;28;20241;-66
2022/11/02 12:43:45;;;;;;;7.35;1.60;;;;;;;;;;5071839;28;20242;-66
2022/11/02 12:46:44;;;;;;;11.93;2.10;;;;;;;;;;5069911;28;20635;-65
2022/11/02 12:49:52;;;;;;;7.05;1.30;;;;;;;;;;5069984;28;20186;-66
2022/11/02 12:52:43;;;;;;;9.95;1.30;;;;;;;;;;4997839;28;20631;-66
2022/11/02 12:55:16;;;;;;;8.68;1.40;;;;;;;;;;4995370;28;20230;-66
2022/11/02 12:57:42;;;;;;;7.85;1.50;;;;;;;;;;5050388;28;20230;-65
2022/11/02 13:00:17;;;;;;;12.43;2.40;;;;;;;;;;5070051;28;20236;-66
2022/11/02 13:03:01;;;;;;;13.85;2.00;;;;;;;;;;5070832;28;20187;-65
2022/11/02 13:05:36;;;;;;;7.20;1.48;;;;;;;;;;5072594;28;20177;-65
2022/11/02 13:08:20;;;;;;;5.22;1.20;;;;;;;;;;5070292;28;20592;-65
2022/11/02 13:10:57;;;;;;;11.38;1.88;;;;;;;;;;5074116;28;20606;-65
2022/11/02 13:13:33;;;;;;;10.48;2.22;;;;;;;;;;5068431;28;20599;-66
2022/11/02 13:16:00;;;;;;;7.03;1.50;;;;;;;;;;5072460;28;20175;-66
2022/11/02 13:18:48;;;;;;;7.60;1.60;;;;;;;;;;5073602;28;20258;-66
2022/11/02 13:21:21;;;;;;;11.52;1.65;;;;;;;;;;5070599;28;20242;-65
2022/11/02 13:23:55;;;;;;;9.93;1.92;;;;;;;;;;5069257;28;20173;-65
2022/11/02 13:26:29;;;;;;;7.78;1.63;;;;;;;;;;5070930;28;20184;-65
2022/11/02 13:29:05;;;;;;;14.95;2.10;;;;;;;;;;5072596;28;20173;-65
2022/11/02 13:31:42;;;;;;;14.63;1.98;;;;;;;;;;5070192;28;20513;-65
2022/11/02 13:34:13;;;;;;;14.93;2.28;;;;;;;;;;5078975;28;20191;-65
2022/11/02 13:36:39;;;;;;;9.20;1.40;;;;;;;;;;5071968;28;20263;-65
2022/11/02 13:39:37;;;;;;;10.00;2.08;;;;;;;;;;5078634;28;20341;-65
2022/11/02 13:42:32;;;;;;;11.07;1.73;;;;;;;;;;5075759;28;20191;-65
2022/11/02 13:45:06;;;;;;;16.65;2.28;;;;;;;;;;5012258;28;20290;-65
2022/11/02 13:47:49;;;;;;;8.32;1.58;;;;;;;;;;5077971;28;20272;-65
2022/11/02 13:50:19;;;;;;;9.32;1.73;;;;;;;;;;5075318;28;20647;-65
2022/11/02 13:52:53;;;;;;;14.70;2.45;;;;;;;;;;5070003;28;20212;-65
2022/11/02 13:55:22;;;;;;;11.50;2.78;;;;;;;;;;5073253;28;20176;-65
2022/11/02 13:57:57;;;;;;;8.13;1.77;;;;;;;;;;5068306;28;20857;-65
2022/11/02 14:00:23;;;;;;;9.50;1.48;;;;;;;;;;5068984;28;20846;-65
2022/11/02 14:02:56;;;;;;;11.70;1.75;;;;;;;;;;5075612;28;20272;-65
2022/11/02 14:05:40;;;;;;;9.95;1.88;;;;;;;;;;5075156;28;20691;-65
2022/11/02 14:08:08;;;;;;;6.38;1.40;;;;;;;;;;5071810;28;20184;-65
2022/11/02 14:10:39;;;;;;;14.43;2.05;;;;;;;;;;5070649;28;20173;-65
2022/11/02 14:13:10;;;;;;;7.15;1.50;;;;;;;;;;5073163;28;20430;-65
2022/11/02 14:15:37;;;;;;;6.57;1.25;;;;;;;;;;5072467;28;20181;-65
2022/11/02 14:18:05;;;;;;;10.55;1.73;;;;;;;;;;5071434;28;20204;-67
2022/11/02 14:20:38;;;;;;;11.13;1.67;;;;;;;;;;5071751;28;20209;-65
2022/11/02 14:23:24;;;;;;;6.35;1.40;;;;;;;;;;5070591;28;20184;-65
2022/11/02 14:25:54;;;;;;;8.77;1.48;;;;;;;;;;5060655;28;20197;-65
2022/11/02 14:28:20;;;;;;;7.93;1.30;;;;;;;;;;5069962;28;20531;-65
2022/11/02 14:30:47;;;;;;;13.15;1.67;;;;;;;;;;5070820;28;20224;-65
2022/11/02 14:33:39;;;;;;;13.73;1.88;;;;;;;;;;5071558;28;20211;-65
2022/11/02 14:36:18;;;;;;;8.75;1.50;;;;;;;;;;5039958;28;20196;-65
2022/11/02 14:39:04;;;;;;;8.35;1.30;;;;;;;;;;5067338;28;20638;-66
2022/11/02 14:42:05;;;;;;;8.48;1.67;;;;;;;;;;5070823;28;20180;-65
2022/11/02 14:44:51;;;;;;;7.85;1.40;;;;;;;;;;5003507;28;20194;-65
2022/11/02 14:47:18;;;;;;;10.52;1.88;;;;;;;;;;5070515;28;20189;-65
2022/11/02 14:49:50;;;;;;;7.43;1.52;;;;;;;;;;5070188;28;20185;-65
2022/11/02 14:52:24;;;;;;;10.15;2.05;;;;;;;;;;5069891;28;20194;-65
2022/11/02 14:54:58;;;;;;;7.03;1.50;;;;;;;;;;5075318;28;20213;-65
2022/11/02 14:57:29;;;;;;;11.40;1.60;;;;;;;;;;5069257;28;20180;-66
2022/11/02 14:59:58;;;;;;;8.65;1.63;;;;;;;;;;5071913;28;20200;-65
2022/11/02 15:02:27;;;;;;;8.52;1.40;;;;;;;;;;5071885;28;20195;-65
2022/11/02 15:04:56;;;;;;;8.20;1.65;;;;;;;;;;5069854;28;20238;-66
2022/11/02 15:07:41;;;;;;;7.35;1.63;;;;;;;;;;5071230;28;20298;-65
2022/11/02 15:10:28;;;;;;;11.55;1.75;;;;;;;;;;5069346;28;20588;-65
2022/11/02 15:13:17;;;;;;;8.30;1.63;;;;;;;;;;5069009;28;20173;-65
2022/11/02 15:15:42;;;;;;;10.23;1.27;;;;;;;;;;5071482;28;20275;-65
2022/11/02 15:18:28;;;;;;;9.80;1.73;;;;;;;;;;5068853;28;20716;-66